Date,TemperatureHighF,TemperatureAvgF,TemperatureLowF,DewpointHighF,DewpointAvgF,DewpointLowF,HumidityHigh,HumidityAvg,HumidityLow,PressureMaxIn,PressureMinIn,WindSpeedMaxMPH,WindSpeedAvgMPH,GustSpeedMaxMPH,PrecipitationSumIn
2013-1-1,74,69,60,69,66,58,98,89,80,30.13,29.97,11,3,17,0.01
2013-1-2,62,55,49,62,52,46,98,88,71,30.18,29.98,18,10,20,0.00
2013-1-3,49,45,39,47,43,36,97,92,85,30.35,30.17,16,8,19,0.01
2013-1-4,56,45,36,44,37,33,87,72,47,30.42,30.32,13,3,15,0.00
2013-1-5,56,49,41,46,38,32,77,66,51,30.39,30.24,9,1,11,0.00
2013-1-6,54,51,48,48,44,39,90,76,63,30.29,30.18,13,4,16,0.00
2013-1-7,63,51,41,51,42,39,94,75,44,30.33,30.22,8,2,10,0.00
2013-1-8,65,58,49,60,53,42,89,83,74,30.28,30.18,7,1,11,0.00
2013-1-9,70,67,64,68,65,60,99,94,87,30.28,30.19,10,2,14,0.01
2013-1-10,71,67,64,69,67,64,99,97,93,30.28,30.12,12,5,23,0.35
2013-1-11,75,69,64,71,68,64,99,94,87,30.19,30.09,8,2,19,0.01
2013-1-12,75,70,67,70,68,67,99,95,84,30.15,30.02,10,4,18,0.00
2013-1-13,74,71,68,71,70,68,99,96,88,30.06,29.98,15,4,21,0.00
2013-1-14,76,72,70,72,70,69,100,95,82,30.12,30.04,10,4,16,0.00
2013-1-15,75,72,68,72,70,67,98,95,88,30.07,29.95,10,4,20,0.03
2013-1-16,73,62,50,71,61,50,99,97,92,30.02,29.95,15,5,18,0.30
2013-1-17,50,46,42,49,42,37,99,87,73,30.31,30.02,31,14,37,0.00
2013-1-18,59,47,38,43,39,36,97,76,44,30.52,30.32,14,5,18,0.00
2013-1-19,64,50,38,50,42,34,92,76,55,30.42,30.26,5,1,8,0.00
2013-1-20,64,53,44,54,48,43,98,85,61,30.28,30.13,8,1,13,0.00
2013-1-21,64,55,45,51,47,44,99,77,53,30.22,30.12,13,3,13,0.01
2013-1-22,59,50,42,44,38,30,92,66,37,30.37,30.20,10,3,13,0.00
2013-1-23,66,52,38,54,45,33,97,78,57,30.43,30.32,4,1,10,0.00
2013-1-24,68,59,50,59,55,49,99,89,70,30.36,30.25,7,2,14,0.00
2013-1-25,71,60,48,63,56,48,99,89,67,30.32,30.19,6,1,14,0.01
2013-1-26,71,63,57,64,61,56,98,91,77,30.27,30.19,7,1,10,0.00
2013-1-27,71,61,54,62,58,54,98,88,70,30.34,30.27,8,1,12,0.01
2013-1-28,72,65,57,66,63,56,99,93,82,30.32,30.19,9,3,14,0.01
2013-1-29,76,71,67,71,69,66,97,94,85,30.19,29.93,14,4,20,0.00
2013-1-30,76,66,50,73,63,42,97,90,72,30.10,29.68,32,9,38,0.12
2013-1-31,57,50,43,45,36,29,80,63,36,30.33,30.11,22,10,26,0.00
2013-2-1,60,52,42,47,39,27,76,61,45,30.41,30.32,17,7,19,0.00
2013-2-2,63,50,35,53,38,23,95,67,52,30.39,30.19,7,1,11,0.00
2013-2-3,65,57,48,54,48,40,98,76,44,30.27,30.13,10,2,15,0.00
2013-2-4,66,56,45,57,48,39,91,74,56,30.14,30.00,8,1,9,0.00
2013-2-5,69,61,56,63,59,55,98,91,76,30.05,29.96,8,1,12,0.43
2013-2-6,71,61,56,63,59,55,99,92,73,30.17,30.03,6,1,9,0.00
2013-2-7,72,64,59,67,62,57,99,91,72,30.06,29.77,23,5,24,0.82
2013-2-8,68,60,53,63,58,52,99,92,81,30.16,29.96,14,3,16,0.00
2013-2-9,63,55,46,54,50,44,99,83,55,30.27,30.16,8,2,12,0.00
2013-2-10,70,64,51,69,62,51,99,95,88,30.17,30.01,14,4,22,0.02
2013-2-11,78,66,59,73,65,57,98,95,84,30.11,30.02,14,4,20,0.35
2013-2-12,71,66,58,70,64,57,99,94,85,30.06,29.79,15,4,18,0.05
2013-2-13,69,58,49,69,55,47,98,88,69,30.07,29.80,20,9,23,0.01
2013-2-14,57,47,40,47,43,39,98,86,64,30.17,30.03,12,5,14,0.00
2013-2-15,66,52,38,51,44,37,99,78,48,30.18,30.05,10,2,16,0.01
2013-2-16,55,49,40,49,35,25,81,60,36,30.30,30.07,25,15,32,0.00
2013-2-17,54,42,31,37,29,21,96,62,34,30.41,30.30,10,3,12,0.00
2013-2-18,63,53,36,55,44,35,97,76,54,30.33,30.09,16,5,22,0.00
2013-2-19,66,61,44,63,51,32,98,72,39,30.22,30.02,18,8,25,0.49
2013-2-20,57,47,39,41,34,26,92,62,36,30.27,30.11,10,2,13,0.00
2013-2-21,66,56,40,65,48,34,96,76,48,30.12,29.93,14,4,18,0.00
2013-2-22,71,67,63,71,67,62,100,98,96,30.00,29.90,8,2,16,2.63
2013-2-23,71,63,58,71,62,57,100,98,96,29.96,29.79,16,4,17,0.59
2013-2-24,72,62,53,60,57,53,98,87,63,30.00,29.84,8,2,9,0.90
2013-2-25,70,62,59,66,62,59,99,97,79,29.89,29.56,18,5,26,3.01
2013-2-26,67,60,56,67,54,48,99,81,69,29.92,29.55,13,5,22,0.27
2013-2-27,63,55,47,53,47,41,96,75,53,30.05,29.93,14,3,17,0.00
2013-2-28,59,54,47,54,42,37,90,66,45,30.09,29.98,16,9,20,0.00
2013-3-1,55,48,42,45,38,34,82,69,56,30.15,30.02,16,7,19,0.00
2013-3-2,48,43,39,36,32,29,83,68,53,30.19,30.08,24,14,28,0.00
2013-3-3,51,44,36,38,31,27,80,62,45,30.22,30.12,19,10,24,0.00
2013-3-4,64,53,34,60,46,34,98,78,49,30.23,30.04,13,3,19,0.00
2013-3-5,71,63,50,63,58,43,96,83,66,30.14,29.96,22,6,29,0.00
2013-3-6,58,50,44,45,36,30,82,60,42,30.28,30.14,26,14,27,0.00
2013-3-7,60,49,37,50,40,32,92,73,48,30.35,30.23,10,3,15,0.00
2013-3-8,71,55,41,53,45,37,96,71,42,30.32,30.20,4,1,9,0.00
2013-3-9,67,58,46,58,52,46,98,82,63,30.24,30.09,12,3,19,0.00
2013-3-10,71,64,61,63,59,54,95,84,76,30.13,30.00,20,6,23,0.00
2013-3-11,71,61,50,66,59,46,99,93,85,29.99,29.83,19,8,24,0.77
2013-3-12,64,53,43,46,42,38,90,69,45,30.19,29.96,19,11,25,0.00
2013-3-13,64,55,45,46,39,28,90,58,30,30.34,30.19,21,8,26,0.00
2013-3-14,63,52,41,45,35,27,92,54,30,30.43,30.29,15,7,19,0.00
2013-3-15,69,55,41,54,48,40,96,78,46,30.33,30.17,10,1,14,0.00
2013-3-16,74,64,55,62,59,54,97,84,61,30.17,30.03,7,1,16,0.00
2013-3-17,72,64,56,67,62,56,99,94,78,30.05,29.95,8,2,13,0.01
2013-3-18,77,69,64,71,67,63,98,92,81,29.96,29.82,10,3,18,0.00
2013-3-19,78,67,60,69,60,46,98,80,54,30.05,29.90,11,2,15,0.00
2013-3-20,65,60,48,45,40,36,76,48,39,30.09,29.97,18,6,19,0.00
2013-3-21,66,54,46,47,37,29,85,55,27,30.09,29.92,15,5,16,0.00
2013-3-22,66,59,50,55,46,35,87,65,40,30.00,29.91,17,4,24,0.00
2013-3-23,70,66,62,68,62,48,99,89,56,29.91,29.62,14,3,43,0.67
2013-3-24,78,70,54,71,63,39,100,81,50,29.91,29.58,29,8,32,0.05
2013-3-25,59,51,43,42,34,29,78,56,35,30.22,29.93,29,16,32,0.00
2013-3-26,55,46,39,34,31,27,72,57,41,30.37,30.23,22,12,28,0.00
2013-3-27,59,48,36,46,36,29,92,65,42,30.44,30.29,10,3,16,0.00
2013-3-28,67,53,40,47,41,33,95,68,36,30.37,30.27,6,1,13,0.00
2013-3-29,72,57,44,55,48,42,97,75,35,30.36,30.24,7,1,13,0.00
2013-3-30,76,62,50,63,57,49,99,85,51,30.24,30.08,7,1,13,0.00
2013-3-31,77,69,60,67,65,59,98,88,65,30.09,29.92,8,2,12,0.01
2013-4-1,74,67,60,66,61,55,96,83,60,30.05,29.93,13,4,15,0.00
2013-4-2,78,66,53,61,54,46,97,69,34,30.15,30.04,10,2,14,0.00
2013-4-3,64,60,56,61,58,55,98,93,81,30.09,29.80,15,2,23,1.26
2013-4-4,75,65,59,66,62,59,98,90,72,29.97,29.86,15,2,17,0.00
2013-4-5,65,58,55,59,53,51,96,84,61,30.11,29.91,19,10,22,0.00
2013-4-6,72,61,46,56,52,44,97,73,47,30.20,30.10,7,2,13,0.00
2013-4-7,75,65,51,67,61,50,97,88,75,30.17,30.06,11,3,15,0.00
2013-4-8,78,70,64,69,66,63,98,85,65,30.12,30.02,10,4,20,0.00
2013-4-9,80,72,66,69,66,63,98,83,67,30.13,30.01,14,4,19,0.00
2013-4-10,80,72,66,72,68,63,96,86,74,30.09,29.93,11,4,20,0.00
2013-4-11,79,73,68,75,71,67,99,95,86,29.92,29.64,16,5,22,1.23
2013-4-12,74,65,58,68,55,50,99,73,45,29.99,29.76,23,10,23,0.00
2013-4-13,80,66,52,60,52,47,90,65,35,30.07,29.92,6,2,11,0.00
2013-4-14,68,64,59,66,62,59,99,95,84,29.96,29.73,22,3,29,1.33
2013-4-15,76,68,63,70,66,63,99,94,80,30.07,29.86,6,2,11,0.01
2013-4-16,82,73,65,71,68,65,98,86,68,30.14,30.05,8,2,15,0.00
2013-4-17,80,73,67,71,68,66,99,87,63,30.16,30.04,11,3,17,0.00
2013-4-18,79,73,66,73,70,65,97,91,80,30.04,29.91,14,5,22,0.00
2013-4-19,76,62,52,74,61,51,98,95,85,30.17,29.85,23,9,32,0.16
2013-4-20,69,57,46,51,46,39,92,68,42,30.26,30.13,18,6,19,0.00
2013-4-21,75,62,47,57,50,44,90,68,43,30.22,30.12,11,1,11,0.00
2013-4-22,75,67,60,64,59,49,88,76,65,30.17,30.08,5,2,11,0.00
2013-4-23,74,68,61,64,62,59,98,82,65,30.16,30.07,10,3,17,0.00
2013-4-24,78,68,58,71,66,58,99,93,72,30.16,30.06,12,1,16,0.06
2013-4-25,78,68,60,68,62,46,99,82,52,30.28,30.14,12,5,14,0.01
2013-4-26,82,69,57,60,49,43,95,52,26,30.31,30.23,8,2,14,0.00
2013-4-27,79,70,58,71,66,58,98,89,74,30.25,30.09,9,2,16,0.00
2013-4-28,81,74,69,71,70,66,98,85,66,30.12,29.97,8,1,14,0.00
2013-4-29,84,72,67,72,67,63,96,85,66,30.01,29.92,11,2,14,0.00
2013-4-30,81,72,65,73,68,64,99,88,67,29.99,29.92,7,2,15,0.01
2013-5-1,73,71,69,71,68,66,96,90,82,29.99,29.90,11,4,21,0.14
2013-5-2,79,71,66,70,66,64,97,85,69,30.01,29.91,11,3,23,0.05
2013-5-3,74,68,56,67,65,55,98,89,76,29.95,29.82,19,2,28,0.07
2013-5-4,67,57,49,54,47,43,99,73,44,29.94,29.87,29,14,33,0.00
2013-5-5,72,60,47,63,51,45,98,74,46,30.00,29.83,19,6,25,0.08
2013-5-6,70,63,54,60,53,48,84,71,53,30.04,29.94,15,4,17,0.00
2013-5-7,75,67,60,64,60,57,93,80,65,30.06,29.96,8,3,12,0.00
2013-5-8,82,69,57,69,64,57,99,86,58,30.13,30.03,8,1,12,0.00
2013-5-9,82,71,61,70,66,61,99,84,51,30.18,30.07,5,1,10,0.01
2013-5-10,78,72,65,72,68,65,98,89,73,30.16,29.95,10,1,14,0.00
2013-5-11,76,69,63,70,67,63,99,93,77,30.07,29.97,7,1,8,0.22
2013-5-12,79,72,66,69,62,52,98,73,39,30.12,29.99,12,7,16,0.00
2013-5-13,77,67,56,59,49,42,82,56,30,30.28,30.12,15,6,19,0.00
2013-5-14,80,69,54,60,56,50,93,65,39,30.30,30.18,9,1,15,0.00
2013-5-15,84,71,59,67,60,52,98,72,34,30.24,30.07,7,1,12,0.00
2013-5-16,80,74,68,72,69,64,98,87,71,30.10,30.02,10,2,14,0.00
2013-5-17,82,75,68,74,71,68,99,89,72,30.10,30.01,10,2,12,0.01
2013-5-18,84,77,71,74,72,70,98,85,71,30.12,30.04,7,1,11,0.00
2013-5-19,86,77,71,75,72,70,99,87,67,30.08,30.02,6,1,13,0.00
2013-5-20,87,78,71,76,73,70,99,86,67,30.07,29.99,9,1,13,0.01
2013-5-21,87,78,69,75,72,69,99,83,60,30.03,29.92,7,1,11,0.01
2013-5-22,85,77,69,76,73,69,99,87,71,30.02,29.90,5,1,10,0.01
2013-5-23,87,80,73,76,73,69,94,79,56,30.05,29.96,8,3,11,0.00
2013-5-24,88,80,70,76,67,56,94,67,42,30.17,30.02,18,6,21,0.00
2013-5-25,88,74,62,64,56,51,94,57,32,30.24,30.15,8,2,13,0.00
2013-5-26,87,75,64,73,68,62,97,80,49,30.24,30.14,6,1,15,0.00
2013-5-27,86,76,66,73,69,65,98,80,55,30.20,30.09,9,2,13,0.00
2013-5-28,85,76,66,74,71,65,97,85,68,30.12,30.06,10,2,16,0.00
2013-5-29,85,78,69,75,73,68,98,85,70,30.10,30.03,11,3,23,0.00
2013-5-30,86,81,77,75,73,71,91,79,61,30.10,30.03,13,6,23,0.00
2013-5-31,86,80,76,75,74,73,91,82,67,30.09,30.01,11,4,19,0.00
2013-6-1,86,80,75,77,75,73,96,85,72,30.05,29.97,11,3,18,0.00
2013-6-2,88,80,72,78,75,72,99,86,67,30.00,29.88,8,1,15,0.27
2013-6-3,89,80,74,79,76,73,99,87,67,29.95,29.86,5,1,10,0.01
2013-6-4,89,81,74,79,76,73,99,84,68,29.97,29.91,11,2,14,0.00
2013-6-5,87,81,75,78,75,73,99,84,66,29.97,29.88,10,2,17,0.26
2013-6-6,85,78,70,76,73,69,97,84,69,29.93,29.71,10,5,30,0.05
2013-6-7,85,78,73,75,73,71,95,83,69,29.92,29.76,12,3,13,0.00
2013-6-8,89,80,72,78,75,71,98,83,64,30.07,29.90,9,2,16,0.88
2013-6-9,76,73,70,75,72,70,99,98,96,30.11,29.97,14,2,15,4.34
2013-6-10,80,76,72,78,75,71,99,94,86,30.11,30.01,8,1,21,0.95
2013-6-11,90,81,75,81,77,75,100,89,75,30.12,30.02,6,1,10,0.00
2013-6-12,93,84,78,82,79,77,97,85,65,30.10,30.01,5,1,10,0.00
2013-6-13,91,85,80,81,78,74,92,81,64,30.04,29.88,9,2,14,0.00
2013-6-14,93,85,80,81,76,70,91,75,52,29.95,29.84,13,4,15,0.00
2013-6-15,89,82,73,80,76,68,92,80,71,30.04,29.93,9,3,16,0.00
2013-6-16,91,83,79,80,78,76,96,85,68,30.07,30.01,7,2,14,0.00
2013-6-17,90,82,78,80,75,-100,97,84,68,30.05,29.98,5,-12,14,0.00
2013-6-18,89,82,73,79,76,72,98,82,61,30.04,29.92,12,2,18,0.54
2013-6-19,87,77,72,78,75,71,99,92,74,30.05,29.95,15,1,23,0.25
2013-6-20,91,80,74,80,75,72,98,86,66,30.11,30.02,6,1,11,0.30
2013-6-21,88,79,72,79,75,71,97,89,69,30.14,30.05,12,1,18,0.23
2013-6-22,90,81,72,77,75,71,98,83,62,30.13,30.02,6,1,12,0.23
2013-6-23,88,80,74,79,76,73,98,88,68,30.14,30.05,7,1,13,0.32
2013-6-24,92,84,77,79,77,75,96,80,62,30.19,30.10,5,1,8,0.32
2013-6-25,92,81,74,80,76,73,97,85,65,30.15,30.04,6,0,8,0.08
2013-6-26,91,83,74,79,76,73,97,81,65,30.10,30.00,5,1,11,0.08
2013-6-27,93,85,79,82,79,76,89,82,67,30.03,29.92,7,2,14,0.00
2013-6-28,92,85,76,83,80,73,96,85,67,29.93,29.78,9,2,14,0.13
2013-6-29,89,82,76,83,76,71,94,84,70,29.81,29.69,9,2,16,0.15
2013-6-30,87,78,72,77,74,71,99,87,68,29.79,29.71,22,1,22,0.08
2013-7-1,90,81,71,78,74,70,99,80,54,29.91,29.77,7,2,10,0.01
2013-7-2,90,83,75,77,74,70,93,76,53,30.02,29.89,7,1,11,0.01
2013-7-3,82,76,74,78,74,72,98,94,83,30.05,29.97,7,2,12,0.54
2013-7-4,80,76,74,76,74,71,99,94,77,30.05,29.92,14,3,19,1.57
2013-7-5,78,73,70,77,73,70,100,98,90,30.11,30.02,8,1,20,5.34
2013-7-6,79,76,72,78,75,72,100,97,89,30.08,30.01,10,2,12,0.15
2013-7-7,86,79,75,79,77,74,98,92,77,30.14,30.05,8,2,13,0.10
2013-7-8,89,79,74,80,76,74,99,92,71,30.19,30.11,5,1,10,0.06
2013-7-9,90,81,72,79,76,72,99,86,68,30.20,30.10,5,1,9,0.00
2013-7-10,91,81,76,80,77,74,96,88,70,30.13,29.99,13,2,14,0.01
2013-7-11,80,76,74,78,75,72,98,96,87,30.03,29.90,7,1,10,0.95
2013-7-12,90,80,70,80,76,69,99,87,70,29.94,29.85,8,1,21,0.82
2013-7-13,88,78,71,80,75,71,100,91,71,29.99,29.87,11,1,14,0.20
2013-7-14,85,76,69,79,74,69,99,93,75,30.05,29.93,6,1,13,1.49
2013-7-15,89,79,73,78,74,-100,99,87,63,30.15,30.04,10,-10,12,0.59
2013-7-16,90,81,74,78,75,73,96,84,66,30.20,30.11,9,2,17,0.02
2013-7-17,94,83,74,79,76,73,97,81,58,30.23,30.11,8,1,11,0.00
2013-7-18,90,81,74,79,75,70,95,82,61,30.15,30.02,8,2,14,0.24
2013-7-19,85,78,73,80,76,72,99,91,70,30.09,29.98,5,1,12,0.13
2013-7-20,87,79,75,80,77,75,99,93,80,30.03,29.95,9,1,13,0.37
2013-7-21,89,81,78,79,76,74,94,85,68,30.08,30.01,5,1,22,0.01
2013-7-22,86,78,72,80,76,71,99,93,81,30.10,30.03,11,1,20,4.26
2013-7-23,89,80,72,81,77,71,100,93,76,30.05,29.95,21,2,36,0.00
2013-7-24,88,82,74,82,78,72,100,89,75,29.96,29.88,10,2,17,0.12
2013-7-25,90,82,74,81,77,73,96,84,67,30.01,29.87,12,3,12,0.01
2013-7-26,90,83,75,79,76,72,94,81,63,30.06,29.98,6,1,10,0.00
2013-7-27,86,81,76,80,78,75,98,89,75,29.98,29.93,7,1,10,0.17
2013-7-28,88,80,73,81,76,72,99,90,76,30.01,29.91,8,1,13,1.74
2013-7-29,91,83,76,80,78,76,99,86,64,30.13,29.99,6,1,10,0.00
2013-7-30,92,84,76,81,78,75,99,83,62,30.17,30.08,5,1,11,0.00
2013-7-31,90,82,78,82,79,77,98,89,73,30.12,30.00,4,0,11,0.18
2013-8-1,86,80,77,81,78,75,98,92,83,30.02,29.93,6,1,14,0.22
2013-8-2,92,83,75,82,78,74,99,86,69,30.04,29.93,4,1,10,0.01
2013-8-3,92,85,80,83,80,78,95,85,68,30.07,29.99,4,1,12,0.00
2013-8-4,96,85,77,82,80,76,98,85,60,30.08,29.97,8,1,24,0.13
2013-8-5,94,84,77,82,79,74,97,83,56,30.05,29.95,8,3,12,0.00
2013-8-6,94,82,74,82,77,73,98,85,63,30.03,29.92,17,1,19,0.19
2013-8-7,94,83,73,81,77,72,97,83,62,30.00,29.91,8,2,12,0.00
2013-8-8,92,81,75,81,78,74,98,90,65,29.99,29.93,14,1,16,0.14
2013-8-9,91,83,77,81,78,76,99,87,68,30.07,29.97,9,2,14,0.53
2013-8-10,92,81,76,81,77,75,98,88,67,30.11,30.03,10,1,14,0.00
2013-8-11,92,83,76,80,78,75,98,85,64,30.15,30.08,7,1,11,0.00
2013-8-12,93,82,77,81,78,76,98,88,66,30.13,30.04,10,1,16,0.00
2013-8-13,89,81,76,82,78,74,97,91,71,30.07,29.96,9,2,22,0.55
2013-8-14,90,81,75,80,76,74,98,86,70,29.98,29.89,7,2,12,0.02
2013-8-15,86,80,75,81,77,74,98,91,75,29.99,29.91,6,1,11,0.27
2013-8-16,80,77,75,78,76,74,99,96,87,30.02,29.93,10,2,11,0.54
2013-8-17,75,73,71,75,72,70,99,98,94,30.04,29.94,13,2,13,3.06
2013-8-18,83,76,72,78,75,71,99,96,85,30.07,29.99,9,2,14,1.53
2013-8-19,91,81,73,81,77,73,100,89,70,30.07,29.99,6,2,10,0.01
2013-8-20,89,77,74,81,76,74,99,95,73,30.11,30.00,11,1,20,0.48
2013-8-21,92,79,73,80,75,72,99,87,66,30.15,30.06,7,2,13,0.01
2013-8-22,91,80,72,79,75,71,96,85,66,30.12,29.99,9,2,14,0.00
2013-8-23,83,76,73,78,74,72,99,95,85,30.05,29.95,4,1,8,0.18
2013-8-24,81,76,73,77,75,72,99,94,85,30.14,30.01,3,1,14,0.03
2013-8-25,87,79,74,78,75,73,98,88,71,30.21,30.11,8,2,12,0.05
2013-8-26,90,80,72,74,71,67,92,74,53,30.21,30.10,6,1,12,0.00
2013-8-27,90,78,68,75,70,66,94,76,55,30.13,30.03,7,1,9,0.00
2013-8-28,92,79,71,76,70,-100,93,76,57,30.06,30.00,6,-12,9,0.00
2013-8-29,90,83,73,77,74,71,92,76,59,30.08,29.97,7,2,11,0.00
2013-8-30,91,84,77,79,76,72,87,78,64,30.04,29.91,7,2,10,0.00
2013-8-31,87,81,75,81,77,74,98,88,76,29.96,29.87,13,2,20,0.00
2013-9-1,90,79,73,81,76,71,99,91,71,29.95,29.87,12,1,33,0.46
2013-9-2,90,80,74,81,77,74,100,91,68,30.00,29.91,6,1,10,0.05
2013-9-3,92,79,74,81,77,73,100,92,69,30.00,29.89,13,1,25,0.05
2013-9-4,90,80,73,81,77,72,99,89,69,30.09,29.98,5,0,11,0.01
2013-9-5,92,82,74,81,76,73,99,85,65,30.13,30.04,8,1,10,0.00
2013-9-6,91,83,75,77,74,71,97,76,55,30.10,29.99,5,1,8,0.00
2013-9-7,91,81,74,80,74,70,97,81,57,30.06,29.98,6,1,13,0.04
2013-9-8,93,82,73,77,74,71,99,79,52,30.02,29.94,7,0,10,0.01
2013-9-9,93,82,73,77,73,70,96,75,50,30.06,29.97,9,1,12,0.01
2013-9-10,91,82,76,78,74,72,91,77,57,30.13,30.04,7,2,14,0.00
2013-9-11,93,82,73,76,73,70,93,76,52,30.14,30.04,6,1,11,0.00
2013-9-12,91,82,74,77,74,71,95,78,59,30.05,29.92,5,1,10,0.00
2013-9-13,91,82,74,78,75,72,96,79,56,29.94,29.81,9,2,10,0.00
2013-9-14,88,81,73,77,72,67,88,75,60,30.00,29.85,9,3,11,0.00
2013-9-15,92,81,71,78,72,66,93,74,59,30.07,29.99,7,1,11,0.00
2013-9-16,90,80,73,80,76,72,99,88,67,30.09,30.01,15,1,21,1.67
2013-9-17,92,80,72,79,75,72,99,86,61,30.08,29.99,7,2,13,0.04
2013-9-18,88,79,74,78,74,72,96,87,67,30.10,30.02,6,2,12,0.33
2013-9-19,88,79,72,74,72,69,95,81,58,30.10,30.01,8,2,12,0.00
2013-9-20,88,80,72,81,75,70,95,87,71,30.04,29.88,7,2,16,0.33
2013-9-21,82,77,74,80,76,74,99,96,84,29.87,29.74,13,2,20,3.38
2013-9-22,84,74,70,76,73,70,99,95,78,29.81,29.74,10,3,12,0.18
2013-9-23,90,80,73,80,76,72,98,89,66,29.91,29.79,8,2,15,1.13
2013-9-24,83,77,72,79,76,71,99,96,84,29.91,29.80,14,2,22,1.61
2013-9-25,88,78,72,80,75,72,100,90,66,29.82,29.75,11,2,12,1.61
2013-9-26,87,77,70,77,72,68,98,84,61,29.97,29.82,8,1,9,0.00
2013-9-27,86,74,65,69,66,62,98,77,53,30.06,29.96,8,1,10,0.00
2013-9-28,86,74,62,68,65,60,93,75,49,30.10,30.02,6,1,14,0.00
2013-9-29,85,74,63,70,66,60,92,78,58,30.07,29.96,6,1,8,0.00
2013-9-30,83,74,68,74,70,65,94,86,67,30.02,29.94,4,1,7,0.04
2013-10-1,87,77,68,76,72,66,96,86,65,30.08,29.99,10,1,12,0.04
2013-10-2,76,74,72,76,73,71,98,96,92,30.09,30.02,5,1,9,0.31
2013-10-3,85,77,69,78,74,69,98,89,73,30.09,30.00,9,2,17,0.00
2013-10-4,88,80,74,78,75,72,98,87,66,30.09,30.01,7,2,12,0.00
2013-10-5,87,80,74,79,76,74,99,88,70,30.06,29.96,9,2,16,0.00
2013-10-6,84,76,72,76,74,71,99,94,72,29.96,29.81,7,1,12,1.44
2013-10-7,78,70,63,72,62,58,99,79,54,29.98,29.83,28,12,30,1.44
2013-10-8,86,69,57,71,63,54,94,80,61,30.01,29.94,10,3,13,0.00
2013-10-9,81,72,65,70,67,64,95,86,69,30.12,30.01,7,2,10,0.00
2013-10-10,83,72,62,72,67,62,99,87,65,30.13,30.02,4,0,8,0.00
2013-10-11,85,74,65,72,68,65,99,84,58,30.08,29.98,5,1,7,0.01
2013-10-12,84,75,67,73,70,66,99,85,62,30.10,30.01,5,1,9,0.01
2013-10-13,86,75,67,73,66,63,97,76,47,30.17,30.07,11,2,15,0.01
2013-10-14,87,75,65,71,66,62,91,77,51,30.13,30.02,8,1,9,0.00
2013-10-15,81,71,63,70,66,62,97,85,67,30.08,29.98,6,1,9,0.00
2013-10-16,84,72,63,71,67,62,97,84,59,30.04,29.94,4,1,8,0.00
2013-10-17,84,76,68,77,72,68,98,90,72,29.98,29.90,12,2,14,0.08
2013-10-18,80,71,67,71,67,65,96,88,72,30.03,29.92,11,4,14,0.00
2013-10-19,73,69,65,68,65,60,95,88,76,30.02,29.91,13,4,18,0.01
2013-10-20,76,67,58,64,60,58,98,81,59,30.06,29.97,10,4,14,0.00
2013-10-21,71,65,62,66,60,-100,92,84,80,30.07,29.98,6,-10,9,0.00
2013-10-22,77,68,63,68,65,60,98,89,75,30.00,29.90,10,2,13,0.15
2013-10-23,72,65,58,60,54,47,91,69,41,30.14,29.96,17,9,22,0.00
2013-10-24,74,62,50,60,52,44,89,69,50,30.25,30.13,7,1,11,0.00
2013-10-25,67,59,50,57,48,40,96,71,44,30.38,30.21,15,5,17,0.00
2013-10-26,71,56,44,52,44,37,97,67,37,30.32,30.18,4,1,7,0.00
2013-10-27,76,61,48,60,53,45,97,76,46,30.20,30.11,5,1,9,0.00
2013-10-28,79,66,56,63,59,54,97,79,55,30.23,30.12,4,1,10,0.00
2013-10-29,78,66,57,66,61,56,98,85,58,30.29,30.20,10,1,13,0.01
2013-10-30,80,69,60,72,66,59,98,92,76,30.24,30.12,10,2,17,0.01
2013-10-31,83,76,70,75,72,68,96,87,75,30.11,29.91,11,2,17,0.09
2013-11-1,77,72,66,75,71,64,98,95,90,29.90,29.80,14,2,20,0.13
2013-11-2,76,65,58,63,56,49,90,73,48,30.12,29.89,13,6,17,0.00
2013-11-3,69,58,47,49,46,44,90,68,42,30.24,30.11,15,4,15,0.00
2013-11-4,76,63,52,62,53,44,85,70,51,30.30,30.20,10,2,12,0.00
2013-11-5,79,66,56,62,56,49,77,69,54,30.30,30.18,11,2,14,0.00
2013-11-6,77,67,60,68,63,54,97,85,73,30.19,30.09,9,1,14,0.00
2013-11-7,69,62,51,68,59,45,98,90,78,30.23,30.04,24,10,27,0.10
2013-11-8,66,54,46,45,42,38,84,64,41,30.30,30.18,12,5,18,0.00
2013-11-9,71,59,46,64,53,41,95,80,64,30.26,30.18,6,1,12,0.00
2013-11-10,78,64,55,66,58,53,95,81,56,30.27,30.17,6,1,9,0.00
2013-11-11,75,61,51,59,52,45,95,74,35,30.24,30.14,3,1,7,0.00
2013-11-12,72,59,44,56,49,31,97,70,50,30.41,30.15,24,9,34,0.00
2013-11-13,55,44,36,32,28,25,68,55,33,30.49,30.39,19,6,26,0.00
2013-11-14,63,49,32,54,41,26,92,73,54,30.43,30.20,4,1,8,0.00
2013-11-15,71,64,57,67,60,50,95,88,73,30.19,30.03,12,3,18,0.00
2013-11-16,73,67,62,68,65,61,98,91,81,30.13,30.03,12,3,15,0.00
2013-11-17,79,74,68,75,72,68,99,96,87,30.02,29.95,10,2,13,0.02
2013-11-18,74,69,60,74,66,45,100,91,57,30.06,29.95,13,3,18,2.79
2013-11-19,65,57,50,48,45,41,76,64,50,30.12,30.01,12,6,19,0.00
2013-11-20,72,59,47,60,53,43,88,79,63,30.18,30.05,5,1,9,0.00
2013-11-21,69,62,56,64,59,53,94,87,79,30.25,30.18,6,2,11,0.00
2013-11-22,74,67,62,68,65,61,98,93,81,30.26,30.14,7,1,9,0.00
2013-11-23,71,64,54,66,61,45,98,90,71,30.24,30.14,17,8,21,0.00
2013-11-24,57,50,44,45,36,30,72,58,41,30.35,30.25,19,8,22,0.00
2013-11-25,63,53,45,63,45,34,98,75,62,30.32,29.94,15,4,26,0.07
2013-11-26,70,58,48,70,58,47,100,98,95,29.92,29.69,22,10,37,2.90
2013-11-27,48,43,35,46,37,28,96,78,59,30.38,29.88,31,17,37,0.00
2013-11-28,51,39,30,35,29,25,85,69,40,30.49,30.37,12,4,14,0.00
2013-11-29,61,45,32,39,33,29,91,67,35,30.55,30.42,7,1,11,0.00
2013-11-30,64,49,36,53,43,34,96,82,58,30.46,30.28,3,0,7,0.00
2013-12-1,64,54,47,55,50,45,98,87,64,30.28,30.04,4,0,5,0.00
2013-12-2,69,57,50,58,54,49,98,88,62,30.04,29.83,3,0,8,0.00
2013-12-3,76,68,54,68,65,54,100,92,75,29.89,29.82,6,1,12,0.01
2013-12-4,77,71,67,73,70,66,99,97,87,30.00,29.89,5,1,12,1.38
2013-12-5,77,74,72,75,73,72,100,97,91,30.09,30.00,9,3,17,0.01
2013-12-6,79,74,68,75,73,67,99,96,87,30.12,30.01,22,3,22,0.00
2013-12-7,66,52,49,64,50,48,99,95,90,30.28,30.12,17,9,21,0.00
2013-12-8,77,63,49,73,63,49,100,97,85,30.23,30.08,8,2,13,0.01
2013-12-9,73,69,66,73,69,66,100,100,99,30.12,30.06,5,1,13,0.83
2013-12-10,66,52,42,66,50,39,100,92,76,30.35,30.04,26,9,32,0.00
2013-12-11,60,49,37,51,41,-100,92,78,64,30.39,30.30,8,-8,10,0.00
2013-12-12,59,50,38,46,37,30,78,62,35,30.48,30.37,14,7,20,0.00
2013-12-13,60,49,34,52,40,27,85,72,57,30.38,30.06,6,2,12,0.00
2013-12-14,74,66,56,70,63,51,98,90,71,30.06,29.86,10,2,17,0.01
2013-12-15,60,46,38,58,43,35,96,86,75,30.29,29.92,25,13,32,0.01
2013-12-16,60,44,34,49,40,32,96,84,58,30.35,30.25,8,2,10,0.00
2013-12-17,63,49,37,48,42,36,98,80,43,30.35,30.24,5,0,7,0.00
2013-12-18,65,51,41,46,41,38,97,73,38,30.38,30.28,8,1,12,0.00
2013-12-19,66,56,41,60,52,39,95,86,73,30.30,30.14,8,2,14,0.00
2013-12-20,73,65,56,69,63,55,99,95,85,30.17,30.05,8,2,14,0.00
2013-12-21,76,72,67,73,71,67,99,96,90,30.04,29.91,11,4,22,0.04
2013-12-22,76,70,56,74,69,55,97,96,92,30.09,29.92,20,7,26,0.03
2013-12-23,57,52,42,56,50,38,99,93,85,30.37,30.08,24,12,30,0.44
2013-12-24,53,43,36,38,34,31,92,72,48,30.48,30.35,21,10,25,0.00
2013-12-25,54,43,32,39,33,27,84,70,42,30.40,30.28,10,3,11,0.00
2013-12-26,59,49,42,48,42,38,90,78,64,30.34,30.25,12,5,17,0.00
2013-12-27,61,53,45,47,42,38,82,66,49,30.38,30.27,10,3,15,0.00
2013-12-28,61,53,49,60,51,43,99,95,66,30.28,29.86,11,2,18,2.63
2013-12-29,56,51,45,52,49,44,100,95,85,30.13,29.92,15,8,18,0.00
2013-12-30,56,50,42,53,49,41,99,95,84,30.28,30.13,5,0,7,0.00
2013-12-31,53,48,46,51,45,43,94,90,85,30.42,30.29,13,6,16,0.01
2014-1-1,63,53,46,58,51,44,98,94,83,30.35,30.07,5,1,10,0.09
2014-1-2,59,52,38,58,49,32,100,89,71,30.27,29.92,28,11,36,0.09